Time;durP1;ratioP1;P1;durP2;ratioP2;P2;SDS_P1;SDS_P2;PMS_P1;PMS_P2;Temp;Humidity;BMP_temperature;BMP_pressure;BME280_temperature;BME280_humidity;BME280_pressure;Samples;Min_cycle;Max_cycle;Signal;HPM_P1;HPM_P2
2024/02/01 10:42:55;;;;;;;2.97;1.47;;;;;;;9.14;100.00;99973.28;5121602;27;20574;-83
2024/02/01 10:45:30;;;;;;;1.47;1.30;;;;;;;10.37;100.00;100005.25;5031656;28;39579;-86
2024/02/01 10:48:10;;;;;;;1.50;1.40;;;;;;;10.96;100.00;99977.84;5069347;28;40969;-85
2024/02/01 10:50:39;;;;;;;0.97;0.93;;;;;;;11.21;100.00;99966.97;5058373;28;41466;-84
2024/02/01 10:53:31;;;;;;;1.40;1.30;;;;;;;11.50;100.00;99982.31;5103575;27;42631;-84
2024/02/01 10:56:13;;;;;;;1.03;1.00;;;;;;;11.77;100.00;99981.94;5094330;27;39000;-84
2024/02/01 10:59:11;;;;;;;1.27;1.00;;;;;;;11.84;100.00;99960.34;5091667;28;40886;-85
2024/02/01 11:02:00;;;;;;;1.27;0.90;;;;;;;12.11;100.00;99989.09;5091048;28;43192;-85
2024/02/01 11:07:24;;;;;;;1.20;1.10;;;;;;;12.09;97.22;99975.03;5128478;27;39975;-86
2024/02/01 11:09:53;;;;;;;1.37;1.00;;;;;;;12.40;96.48;100014.16;5112147;27;41995;-85
2024/02/01 11:12:25;;;;;;;1.50;1.10;;;;;;;12.55;93.21;100024.84;5112101;27;42785;-88
2024/02/01 11:14:53;;;;;;;1.40;0.90;;;;;;;12.72;93.17;100039.06;5111828;27;41998;-88
2024/02/01 11:17:25;;;;;;;1.40;1.30;;;;;;;12.84;91.69;100047.28;5124034;27;40933;-88
2024/02/01 11:19:54;;;;;;;2.07;1.10;;;;;;;12.86;89.14;100049.81;5074696;28;42192;-86
2024/02/01 11:22:21;;;;;;;1.73;1.00;;;;;;;12.77;87.29;100045.00;5103417;27;44192;-84
2024/02/01 11:24:49;;;;;;;1.43;1.30;;;;;;;12.46;86.62;99998.78;5111374;27;41536;-87
2024/02/01 11:27:19;;;;;;;1.33;0.93;;;;;;;12.85;86.54;100045.47;5111627;27;39092;-87
2024/02/01 11:29:48;;;;;;;1.13;1.03;;;;;;;12.87;84.70;100032.94;5111765;27;40644;-85
2024/02/01 11:32:18;;;;;;;1.10;0.90;;;;;;;13.00;83.29;100047.28;5111634;27;43593;-87
2024/02/01 11:34:52;;;;;;;1.10;1.00;;;;;;;13.21;84.39;100040.00;5111127;27;42195;-86
2024/02/01 11:37:24;;;;;;;1.30;1.00;;;;;;;13.43;83.80;100045.00;5111532;27;39955;-86
2024/02/01 11:39:54;;;;;;;1.60;1.30;;;;;;;13.57;81.16;100051.28;5109389;27;41660;-87
2024/02/01 11:42:24;;;;;;;1.33;1.13;;;;;;;14.46;77.19;100033.75;5106533;27;42286;-89
2024/02/01 11:44:51;;;;;;;1.40;1.20;;;;;;;18.15;66.50;100080.22;5110892;27;42342;-87
2024/02/01 11:47:26;;;;;;;1.17;1.03;;;;;;;21.36;56.40;100126.84;5111239;27;39146;-90
2024/02/01 11:49:56;;;;;;;1.10;0.90;;;;;;;22.36;48.06;100108.03;5110884;27;42167;-88
2024/02/01 11:52:32;;;;;;;4.17;1.40;;;;;;;23.12;45.25;100130.66;5104009;28;44347;-88
2024/02/01 11:55:03;;;;;;;1.25;1.15;;;;;;;25.58;42.05;100167.50;5097679;28;41701;-91
2024/02/01 11:57:32;;;;;;;1.03;1.00;;;;;;;24.73;42.41;100162.72;5097606;28;39964;-90
2024/02/01 12:00:12;;;;;;;1.30;1.20;;;;;;;26.08;40.10;100167.63;5097765;28;41705;-89
2024/02/01 12:02:45;;;;;;;2.08;1.60;;;;;;;26.75;37.36;100150.34;5097846;28;41812;-89
2024/02/01 12:05:18;;;;;;;2.10;1.20;;;;;;;27.51;37.29;100125.50;5097912;28;42045;-88
2024/02/01 12:07:46;;;;;;;1.60;1.50;;;;;;;27.45;34.13;100153.41;5097639;28;39819;-92
2024/02/01 12:10:15;;;;;;;1.52;1.10;;;;;;;28.50;33.43;100186.81;5097742;28;42471;-92
2024/02/01 12:12:44;;;;;;;1.92;1.30;;;;;;;30.50;31.65;100147.00;5097427;28;42476;-92
2024/02/01 12:15:15;;;;;;;1.73;0.80;;;;;;;31.35;30.33;100177.16;5097525;28;42368;-89
2024/02/01 12:17:45;;;;;;;1.23;1.10;;;;;;;29.35;31.45;100175.81;5097415;28;39133;-89
2024/02/01 12:20:16;;;;;;;1.13;1.10;;;;;;;28.52;30.88;100173.84;5097355;28;40786;-92
2024/02/01 12:22:44;;;;;;;1.83;1.38;;;;;;;26.90;32.11;100175.00;5097044;28;41647;-90
2024/02/01 12:25:12;;;;;;;1.37;1.27;;;;;;;25.07;34.77;100161.03;5096743;28;41571;-91
2024/02/01 12:27:41;;;;;;;2.83;1.30;;;;;;;23.63;37.51;100135.66;5096911;28;40123;-90
2024/02/01 12:30:16;;;;;;;1.30;1.20;;;;;;;22.70;38.99;100140.88;5097827;28;42408;-89
2024/02/01 12:32:44;;;;;;;1.77;1.17;;;;;;;21.94;40.34;100134.31;5096828;28;42856;-89
2024/02/01 12:35:17;;;;;;;2.10;1.23;;;;;;;22.20;40.11;100084.28;5096592;28;41383;-90
2024/02/01 12:37:45;;;;;;;2.00;0.90;;;;;;;21.69;41.44;100112.22;5097083;28;38786;-89
2024/02/01 12:40:14;;;;;;;1.17;1.07;;;;;;;21.04;42.26;100120.63;5096337;28;41759;-87
2024/02/01 12:42:45;;;;;;;1.37;1.27;;;;;;;20.15;43.23;100077.94;5096481;28;42300;-90
2024/02/01 12:45:18;;;;;;;1.50;1.40;;;;;;;19.45;44.36;100076.41;5096275;28;43842;-86
2024/02/01 12:47:48;;;;;;;1.60;1.30;;;;;;;18.80;45.46;100071.69;5096275;28;39616;-89
2024/02/01 12:50:17;;;;;;;2.93;1.27;;;;;;;18.42;46.27;100095.22;5096287;28;40848;-88
2024/02/01 12:52:45;;;;;;;1.90;1.30;;;;;;;17.80;47.28;100073.91;5079343;28;44107;-87
2024/02/01 12:55:16;;;;;;;2.90;1.10;;;;;;;17.52;48.17;100091.94;5096081;28;42432;-92
2024/02/01 12:57:44;;;;;;;1.33;1.23;;;;;;;17.26;48.49;100052.78;5079446;28;39235;-89
2024/02/01 13:00:12;;;;;;;1.53;1.40;;;;;;;17.90;48.13;100096.41;5113458;28;42538;-87
2024/02/01 13:02:42;;;;;;;2.53;1.50;;;;;;;20.09;46.15;100106.19;5096238;28;41800;-90
2024/02/01 13:05:10;;;;;;;2.00;1.07;;;;;;;22.69;41.78;100144.56;5095273;28;41229;-92
2024/02/01 13:07:45;;;;;;;1.67;1.37;;;;;;;24.85;37.39;100151.47;5096879;28;39249;-90
2024/02/01 13:10:15;;;;;;;1.50;1.20;;;;;;;25.89;33.90;100167.84;5096187;28;42180;-90
2024/02/01 13:12:54;;;;;;;1.47;1.10;;;;;;;25.18;35.05;100141.78;5096354;28;41790;-89
2024/02/01 13:15:23;;;;;;;1.77;1.40;;;;;;;23.66;35.04;100166.97;5096399;28;41284;-90
2024/02/01 13:17:51;;;;;;;1.40;1.30;;;;;;;22.38;37.04;100149.22;5074396;28;40612;-90
2024/02/01 13:20:21;;;;;;;1.30;1.20;;;;;;;21.30;38.19;100148.06;5055486;28;40889;-89
2024/02/01 13:22:57;;;;;;;1.77;1.23;;;;;;;20.30;39.88;100117.88;5055828;28;41999;-89
2024/02/01 13:25:26;;;;;;;1.33;1.23;;;;;;;19.51;41.13;100127.03;5055286;28;41261;-90
2024/02/01 13:27:54;;;;;;;1.73;1.00;;;;;;;18.62;42.65;100108.00;5055891;28;38808;-88
2024/02/01 13:30:23;;;;;;;2.00;1.17;;;;;;;17.95;43.48;100121.88;5055669;28;41139;-87
2024/02/01 13:32:52;;;;;;;2.70;1.57;;;;;;;17.22;44.25;100104.81;5055283;28;41905;-90
2024/02/01 13:35:20;;;;;;;2.57;1.40;;;;;;;16.63;44.86;100114.28;5055354;28;42221;-90
2024/02/01 13:38:05;;;;;;;1.40;1.20;;;;;;;16.19;45.62;100109.19;5055579;28;39355;-87
2024/02/01 13:40:47;;;;;;;2.33;1.60;;;;;;;15.67;46.39;100077.81;5055094;28;40628;-87
2024/02/01 13:43:17;;;;;;;1.63;1.20;;;;;;;15.49;46.69;100100.31;5055285;28;43997;-88
2024/02/01 13:45:45;;;;;;;1.27;1.17;;;;;;;15.29;47.32;100107.75;5055499;28;41393;-89
2024/02/01 13:48:12;;;;;;;3.90;1.80;;;;;;;14.98;47.88;100107.91;5055175;28;38950;-88
2024/02/01 13:50:40;;;;;;;2.23;1.73;;;;;;;14.68;48.75;100099.97;5054909;28;43722;-89
2024/02/01 13:53:18;;;;;;;1.90;1.60;;;;;;;14.34;48.45;100085.06;5054743;28;42599;-89
2024/02/01 13:55:47;;;;;;;2.83;1.70;;;;;;;14.12;48.82;100074.78;5055298;28;42590;-89
2024/02/01 13:58:22;;;;;;;2.50;1.60;;;;;;;14.07;49.44;100086.66;5054956;28;40058;-92
2024/02/01 14:00:50;;;;;;;1.90;1.70;;;;;;;13.91;49.91;100092.84;5055077;28;41309;-90
2024/02/01 14:03:18;;;;;;;2.70;1.67;;;;;;;13.77;50.43;100087.44;5054416;28;41858;-90
2024/02/01 14:05:46;;;;;;;2.57;1.57;;;;;;;13.93;50.21;100101.63;5054682;28;41582;-91
2024/02/01 14:08:13;;;;;;;3.83;1.70;;;;;;;14.34;50.01;100088.56;5057555;28;40054;-90
2024/02/01 14:10:41;;;;;;;2.17;1.90;;;;;;;14.39;49.64;100109.63;5054426;28;41941;-87
2024/02/01 14:13:10;;;;;;;2.20;2.00;;;;;;;14.23;49.56;100044.84;5054582;28;41945;-86
2024/02/01 14:15:39;;;;;;;1.53;1.40;;;;;;;15.85;47.13;100114.03;5054387;28;41423;-89
2024/02/01 14:18:07;;;;;;;1.93;1.37;;;;;;;17.29;45.57;100126.69;5038450;28;38643;-89
2024/02/01 14:23:17;;;;;;;1.97;1.50;;;;;;;18.84;39.95;100152.84;5053726;28;42411;-90
2024/02/01 14:25:45;;;;;;;2.00;1.40;;;;;;;19.47;39.48;100168.50;5054449;28;42471;-88
2024/02/01 14:28:14;;;;;;;3.37;1.67;;;;;;;19.87;38.95;100150.13;5055091;28;39137;-90
2024/02/01 14:30:42;;;;;;;1.90;1.70;;;;;;;20.05;38.36;100162.06;5054418;28;40684;-88
2024/02/01 14:33:11;;;;;;;2.57;1.27;;;;;;;20.00;37.42;100123.09;5054626;28;43509;-90
2024/02/01 14:35:42;;;;;;;1.57;1.47;;;;;;;20.62;36.55;100195.13;5054102;28;41971;-90
2024/02/01 14:38:10;;;;;;;2.17;1.20;;;;;;;20.30;37.25;100157.38;5054513;28;39008;-89
2024/02/01 14:40:44;;;;;;;1.40;1.30;;;;;;;19.88;37.63;100156.34;5054490;28;40950;-88
2024/02/01 14:43:40;;;;;;;1.80;1.40;;;;;;;19.72;38.57;100162.94;5056197;28;43026;-89
2024/02/01 14:46:12;;;;;;;1.73;1.33;;;;;;;19.52;38.59;100178.94;5054256;28;41187;-90
2024/02/01 14:48:43;;;;;;;2.17;1.23;;;;;;;19.18;39.05;100173.44;5054012;28;39659;-88
2024/02/01 14:51:11;;;;;;;1.60;1.30;;;;;;;19.11;38.98;100160.63;5053702;28;41172;-87
2024/02/01 14:53:41;;;;;;;1.10;1.00;;;;;;;18.35;39.66;100126.13;5053986;28;42063;-89
2024/02/01 14:56:10;;;;;;;1.83;1.40;;;;;;;17.91;40.95;100174.03;5054022;28;43377;-89
2024/02/01 14:58:39;;;;;;;2.80;1.13;;;;;;;17.01;42.01;100127.72;5053695;28;40795;-86
2024/02/01 15:01:08;;;;;;;1.90;1.30;;;;;;;16.75;42.19;100186.53;5054102;28;41994;-86
2024/02/01 15:03:40;;;;;;;2.67;1.30;;;;;;;16.33;43.30;100205.38;5053939;28;42119;-89
2024/02/01 15:06:16;;;;;;;1.60;1.40;;;;;;;15.68;44.09;100170.34;5053654;28;41220;-87
2024/02/01 15:08:50;;;;;;;1.77;1.17;;;;;;;14.93;45.10;100104.69;5054239;28;40291;-86
2024/02/01 15:11:20;;;;;;;1.73;1.30;;;;;;;14.72;45.69;100137.00;5053918;28;40881;-86
2024/02/01 15:14:16;;;;;;;2.03;1.40;;;;;;;14.65;46.26;100173.00;5056839;28;42641;-86
2024/02/01 15:16:50;;;;;;;2.00;1.50;;;;;;;13.99;46.50;100122.56;5070460;28;42076;-88
2024/02/01 15:19:19;;;;;;;2.57;1.43;;;;;;;13.83;47.04;100135.03;5054512;28;39189;-86
2024/02/01 15:21:59;;;;;;;3.37;1.70;;;;;;;13.44;47.25;100115.91;5070506;28;42630;-87
2024/02/01 15:24:28;;;;;;;2.90;1.30;;;;;;;13.64;47.82;100199.06;5054011;28;42995;-87
2024/02/01 15:27:14;;;;;;;1.63;1.30;;;;;;;13.26;48.35;100179.81;5056078;28;40417;-86
2024/02/01 15:29:43;;;;;;;2.20;1.53;;;;;;;12.98;48.54;100187.47;5064152;28;38978;-86
2024/02/01 15:32:16;;;;;;;1.87;1.77;;;;;;;12.36;49.11;100118.88;5077025;28;42948;-89
2024/02/01 15:34:46;;;;;;;2.47;1.67;;;;;;;12.13;49.89;100114.66;5069954;28;41588;-89
2024/02/01 15:37:18;;;;;;;1.63;1.50;;;;;;;12.22;49.79;100168.22;5058286;28;41283;-90
2024/02/01 15:39:55;;;;;;;1.97;1.63;;;;;;;12.11;50.20;100183.81;5059279;28;40446;-87
2024/02/01 15:42:23;;;;;;;2.40;1.50;;;;;;;11.54;51.00;100118.34;5065000;28;41105;-89
2024/02/01 15:44:52;;;;;;;2.03;1.73;;;;;;;11.74;51.29;100184.66;5066639;28;43301;-86
2024/02/01 15:47:21;;;;;;;2.67;1.37;;;;;;;11.52;52.04;100186.53;5095304;28;43744;-88
2024/02/01 15:49:49;;;;;;;3.13;1.60;;;;;;;11.00;52.34;100133.16;5059962;28;39947;-88
2024/02/01 15:52:21;;;;;;;3.20;1.87;;;;;;;10.99;52.47;100146.50;5072257;28;40679;-87
2024/02/01 15:54:51;;;;;;;1.50;1.40;;;;;;;10.93;52.69;100176.78;5083226;28;42721;-87
2024/02/01 15:57:18;;;;;;;2.33;1.30;;;;;;;10.68;53.27;100166.34;5062725;28;41528;-86
2024/02/01 15:59:47;;;;;;;3.80;1.90;;;;;;;10.72;53.70;100191.81;5073275;28;39314;-88
2024/02/01 16:02:16;;;;;;;2.90;1.60;;;;;;;10.57;54.48;100180.97;5062178;28;41158;-86
2024/02/01 16:04:43;;;;;;;2.50;1.80;;;;;;;10.03;54.54;100121.34;5066780;28;41915;-87
2024/02/01 16:07:11;;;;;;;2.57;1.60;;;;;;;9.94;55.06;100130.53;5069103;28;43405;-87
2024/02/01 16:09:42;;;;;;;2.10;1.80;;;;;;;10.14;55.63;100187.97;5059873;28;39095;-88
2024/02/01 16:12:18;;;;;;;3.27;2.30;;;;;;;9.60;56.51;100128.34;5073070;28;40714;-88
2024/02/01 16:14:46;;;;;;;2.40;2.00;;;;;;;9.58;57.25;100150.47;5065457;28;42060;-89
2024/02/01 16:17:16;;;;;;;2.00;1.67;;;;;;;9.42;57.51;100146.66;5063193;28;42434;-87
2024/02/01 16:19:46;;;;;;;2.37;1.63;;;;;;;9.72;57.44;100223.09;5072909;28;40389;-88
2024/02/01 16:22:15;;;;;;;2.30;1.77;;;;;;;9.51;57.32;100212.47;5061110;28;41924;-87
2024/02/01 16:24:57;;;;;;;3.20;1.57;;;;;;;9.26;57.94;100193.97;5067144;28;41580;-89
2024/02/01 16:28:03;;;;;;;1.70;1.60;;;;;;;9.30;58.49;100222.00;5071263;28;41519;-90
2024/02/01 16:30:57;;;;;;;1.80;1.40;;;;;;;9.08;58.55;100213.09;5060086;28;39898;-87
2024/02/01 16:33:53;;;;;;;2.60;1.70;;;;;;;8.70;58.75;100175.66;5072545;28;40669;-88
2024/02/01 16:36:51;;;;;;;2.67;1.77;;;;;;;8.64;58.44;100191.72;5078135;28;42611;-88
2024/02/01 16:39:53;;;;;;;2.70;1.70;;;;;;;8.31;58.56;100175.16;5077116;28;42844;-87
2024/02/01 16:42:33;;;;;;;3.10;1.60;;;;;;;8.47;59.54;100225.72;5062172;28;40104;-86
2024/02/01 16:45:02;;;;;;;3.27;1.90;;;;;;;8.42;60.00;100238.19;5065036;28;40451;-86
2024/02/01 16:47:44;;;;;;;2.13;1.70;;;;;;;7.92;60.17;100164.06;5089510;28;42006;-86
2024/02/01 16:50:41;;;;;;;2.10;1.43;;;;;;;8.12;60.41;100208.31;5060073;28;42417;-86
2024/02/01 16:53:35;;;;;;;4.57;1.53;;;;;;;7.74;60.48;100175.19;5063454;28;38873;-85
2024/02/01 16:56:06;;;;;;;4.03;1.60;;;;;;;8.00;60.79;100235.94;5055466;28;42751;-88
2024/02/01 16:58:40;;;;;;;1.60;1.50;;;;;;;7.61;60.85;100189.66;5063619;28;41660;-86
2024/02/01 17:01:22;;;;;;;2.93;1.60;;;;;;;7.88;61.05;100262.69;5063360;28;41336;-89
2024/02/01 17:03:53;;;;;;;2.87;1.80;;;;;;;7.31;61.38;100186.97;5072124;28;39221;-85
2024/02/01 17:06:22;;;;;;;3.07;1.40;;;;;;;7.32;61.63;100208.91;5061312;28;42968;-85
2024/02/01 17:08:54;;;;;;;3.03;1.60;;;;;;;7.18;61.87;100196.13;5065360;28;44333;-86
2024/02/01 17:11:24;;;;;;;2.00;1.50;;;;;;;7.46;61.61;100255.06;5087042;28;41184;-89
2024/02/01 17:13:54;;;;;;;3.53;2.00;;;;;;;7.51;61.69;100268.13;5075962;28;40888;-87
2024/02/01 17:16:59;;;;;;;1.77;1.37;;;;;;;7.39;61.69;100269.34;5086683;28;42173;-88
2024/02/01 17:19:32;;;;;;;2.77;1.40;;;;;;;7.01;61.59;100224.69;5070574;28;42810;-87
2024/02/01 17:22:05;;;;;;;1.60;1.40;;;;;;;6.83;61.74;100211.09;5058902;28;42433;-88
2024/02/01 17:24:34;;;;;;;2.57;1.70;;;;;;;6.90;61.92;100218.84;5058929;28;38713;-87
2024/02/01 17:27:04;;;;;;;4.33;1.70;;;;;;;6.63;63.35;100200.22;5075600;28;42303;-88
2024/02/01 17:29:32;;;;;;;3.20;1.90;;;;;;;6.66;62.98;100223.84;5075940;28;41882;-86
2024/02/01 17:32:02;;;;;;;4.53;1.60;;;;;;;6.86;62.86;100265.44;5075415;28;40976;-87
2024/02/01 17:34:36;;;;;;;1.40;1.30;;;;;;;6.97;63.16;100296.78;5075894;28;39124;-88
2024/02/01 17:37:34;;;;;;;3.63;1.60;;;;;;;6.70;63.19;100245.66;5074499;28;41350;-87
2024/02/01 17:40:09;;;;;;;2.87;1.70;;;;;;;6.74;63.09;100269.25;5074421;28;41661;-86
2024/02/01 17:42:38;;;;;;;3.03;1.60;;;;;;;6.62;63.23;100258.16;5058812;28;41363;-88
2024/02/01 17:45:38;;;;;;;1.30;1.20;;;;;;;6.39;63.46;100240.28;5067804;28;39128;-86
2024/02/01 17:48:12;;;;;;;3.63;1.63;;;;;;;6.49;64.01;100276.00;5084409;28;41712;-87
2024/02/01 17:50:54;;;;;;;2.77;1.97;;;;;;;6.42;64.33;100279.69;5070543;28;41362;-87
2024/02/01 17:53:37;;;;;;;3.00;1.43;;;;;;;6.52;64.43;100310.16;5064086;28;41675;-87
2024/02/01 17:56:05;;;;;;;2.73;1.60;;;;;;;6.41;65.14;100304.28;5076509;28;38752;-89
2024/02/01 17:58:38;;;;;;;2.20;1.50;;;;;;;6.43;65.45;100310.34;5071450;28;42073;-87
2024/02/01 18:01:07;;;;;;;2.30;1.60;;;;;;;6.29;65.40;100289.63;5061997;28;41828;-88
2024/02/01 18:03:37;;;;;;;4.00;1.50;;;;;;;6.25;65.69;100300.22;5063926;28;43240;-88
2024/02/01 18:06:06;;;;;;;4.50;1.30;;;;;;;6.31;66.37;100323.75;5087214;28;38959;-86
2024/02/01 18:08:41;;;;;;;2.33;1.70;;;;;;;6.29;66.71;100315.06;5058295;28;43281;-87
2024/02/01 18:11:10;;;;;;;2.33;1.70;;;;;;;6.25;67.09;100316.88;5067145;28;43337;-87
2024/02/01 18:13:39;;;;;;;3.23;1.70;;;;;;;6.11;67.03;100298.78;5066439;28;42893;-86
2024/02/01 18:16:08;;;;;;;2.17;1.47;;;;;;;6.08;67.18;100306.72;5076647;28;40170;-85
2024/02/01 18:18:37;;;;;;;5.03;1.63;;;;;;;6.06;67.29;100310.28;5071616;28;41716;-85
2024/02/01 18:21:06;;;;;;;4.77;1.70;;;;;;;6.06;67.23;100326.06;5061873;28;42973;-87
2024/02/01 18:23:39;;;;;;;4.87;1.83;;;;;;;5.75;67.44;100278.47;5063989;28;40877;-86
2024/02/01 18:26:08;;;;;;;3.70;2.00;;;;;;;5.93;67.66;100317.56;5070153;28;38959;-87
2024/02/01 18:28:37;;;;;;;2.43;1.97;;;;;;;5.83;68.02;100308.09;5058191;28;40705;-85
2024/02/01 18:31:12;;;;;;;4.00;1.57;;;;;;;5.94;67.75;100337.69;5067683;28;41816;-85
2024/02/01 18:33:40;;;;;;;5.10;2.13;;;;;;;5.91;68.22;100329.88;5066387;28;43844;-86
2024/02/01 18:36:13;;;;;;;4.30;1.87;;;;;;;5.80;68.65;100328.34;5074539;28;39059;-86
2024/02/01 18:39:03;;;;;;;5.97;1.80;;;;;;;5.87;69.08;100340.44;5074951;28;41571;-88
2024/02/01 18:41:33;;;;;;;5.23;1.70;;;;;;;5.83;68.81;100344.88;5074994;28;41670;-88
2024/02/01 18:44:23;;;;;;;6.90;1.83;;;;;;;5.82;68.89;100351.03;5091824;28;41338;-86
2024/02/01 18:46:52;;;;;;;5.43;1.93;;;;;;;5.81;68.77;100353.72;5059818;28;39000;-86
2024/02/01 18:49:20;;;;;;;6.97;1.93;;;;;;;5.69;69.03;100332.00;5074252;28;40748;-87
2024/02/01 18:52:00;;;;;;;3.17;1.40;;;;;;;5.68;69.18;100330.31;5074158;28;41897;-86
2024/02/01 18:54:33;;;;;;;6.00;1.97;;;;;;;5.62;69.16;100329.53;5074888;28;41190;-87
2024/02/01 18:57:11;;;;;;;4.87;1.93;;;;;;;5.56;69.27;100321.78;5074260;28;41220;-87
2024/02/01 19:00:09;;;;;;;4.13;1.60;;;;;;;5.14;69.07;100252.50;5074455;28;41937;-88
2024/02/01 19:02:54;;;;;;;3.27;1.80;;;;;;;5.27;69.81;100275.88;5075914;28;43013;-86
